Pagrindinis puslapis
METAR-TAF:

METAR-TAF

Oro uostai :

Tôlanaro, Madagaskaras

platuma: 25-02S, ilguma: 046-57E, Aukštis: 8 m

Dabartinis oras

Ataskaita buvo paskelbta 1 valandą ir 19 minutes, ne 19:00 UTC
Vėjas 10 kt iš Vakarų/Pietvakarių
Temperatūra 20°C
Drėgmė 88%
Slėgis 1024 hPa
Matomumas 10 km arba daugiau
Išsisklaidę debesys ne aukštis 1600 ft
Su prošvaistėmis ne aukštis 3300 ft
Liūtis kaimynystėje

METAR: FMSD 221900Z 24010KT 9999 VCSH SCT016 BKN033 20/18 Q1024

Laikas: 23:19 (20:19 UTC)

Prognozė

Ataskaita buvo paskelbta 3 valandos ir 19 minutes, ne 17:00 UTC
Prognozė galioja nuo 22 metu 18 UTC su 23 metu 18 UTC
Vėjas 15 kt iš Pietų/Pietvakarių
Matomumas: 9000 m
Išsisklaidę debesys ne aukštis 1700 ft
Su prošvaistėmis ne aukštis 3300 ft
Laikinai
nuo 22 metu 18 UTC su 23 metu 10 UTC
Matomumas: 4500 m
lietus

TAF: FMSD 221700Z 2218/2318 20015KT 9000 SCT017 BKN033 TEMPO 2218/2310 4500 SHRA

Orai ataskaitas ir orų prognozės (METAR, TAF).

turimą stotys yra geltonos ir raudonos taškus žemėlapyje.

Perkelti pele per norėdami pamatyti stoties vardą.

Tada spustelėkite, norėdami matyti oro stebėjimo ir prognozės.

Norėdami pakeisti žemėlapį: spustelėkite ant žalios mygtukų su juodo kryžiaus žemyn,; žalią mygtuką su brūkšneliu, jei norite nutolinti; arba žalių rodyklių gretimoms žemėlapius.


METAR-TAF: